createdAt,value
2018-05-21T00:00:10.310Z,0
2018-05-21T00:01:10.354Z,0
2018-05-21T00:02:10.355Z,0
2018-05-21T00:03:10.349Z,0
2018-05-21T00:04:10.483Z,0
2018-05-21T00:05:10.418Z,0
2018-05-21T00:06:10.422Z,0
2018-05-21T00:07:10.361Z,0
2018-05-21T00:08:10.424Z,0
2018-05-21T00:09:10.422Z,0
2018-05-21T00:10:10.424Z,0
2018-05-21T00:11:10.391Z,0
2018-05-21T00:12:10.389Z,0
2018-05-21T00:13:10.386Z,0
2018-05-21T00:14:10.345Z,0
2018-05-21T00:15:10.448Z,0
2018-05-21T00:16:10.388Z,0
2018-05-21T00:17:10.457Z,0
2018-05-21T00:18:10.426Z,0
2018-05-21T00:19:10.471Z,0
2018-05-21T00:20:10.445Z,0
2018-05-21T00:21:10.369Z,0
2018-05-21T00:22:10.420Z,0
2018-05-21T00:23:10.306Z,0
2018-05-21T00:24:10.360Z,0
2018-05-21T00:25:10.362Z,0
2018-05-21T00:26:10.422Z,0
2018-05-21T00:27:10.333Z,0
2018-05-21T00:28:10.365Z,0
2018-05-21T00:29:10.396Z,0
2018-05-21T00:30:10.390Z,0
2018-05-21T00:31:10.405Z,0
2018-05-21T00:32:10.469Z,0
2018-05-21T00:33:10.391Z,0
2018-05-21T00:34:10.452Z,0
2018-05-21T00:35:10.409Z,0
2018-05-21T00:36:10.379Z,0
2018-05-21T00:37:10.443Z,0
2018-05-21T00:38:10.420Z,0
2018-05-21T00:39:10.467Z,0
2018-05-21T00:40:10.363Z,0
2018-05-21T00:41:10.470Z,0
2018-05-21T00:42:10.468Z,0
2018-05-21T00:43:10.467Z,0
2018-05-21T00:44:10.446Z,0
2018-05-21T00:45:10.420Z,0
2018-05-21T00:46:10.419Z,0
2018-05-21T00:47:10.422Z,0
2018-05-21T00:48:10.515Z,0
2018-05-21T00:49:10.425Z,0
2018-05-21T00:50:10.488Z,0
2018-05-21T00:51:10.448Z,0
2018-05-21T00:52:10.448Z,0
2018-05-21T00:53:10.451Z,0
2018-05-21T00:54:10.387Z,0
2018-05-21T00:55:10.453Z,0
2018-05-21T00:56:10.451Z,0
2018-05-21T00:57:10.425Z,0
2018-05-21T00:58:10.391Z,0
2018-05-21T00:59:10.457Z,0
2018-05-21T01:00:10.392Z,0
2018-05-21T01:01:10.458Z,0
2018-05-21T01:02:10.462Z,0
2018-05-21T01:03:10.466Z,0
2018-05-21T01:04:10.457Z,0
2018-05-21T01:05:10.458Z,0
2018-05-21T01:06:10.397Z,0
2018-05-21T01:07:10.459Z,0
2018-05-21T01:08:10.462Z,0
2018-05-21T01:09:10.466Z,0
2018-05-21T01:10:10.431Z,0
2018-05-21T01:11:10.485Z,0
2018-05-21T01:12:10.503Z,0
2018-05-21T01:13:10.440Z,0
2018-05-21T01:14:10.426Z,0
2018-05-21T01:15:10.364Z,0
2018-05-21T01:16:10.453Z,0
2018-05-21T01:17:10.441Z,0
2018-05-21T01:18:10.411Z,0
2018-05-21T01:19:10.392Z,0
2018-05-21T01:20:10.435Z,0
2018-05-21T01:21:10.470Z,0
2018-05-21T01:22:10.469Z,0
2018-05-21T01:23:10.408Z,0
2018-05-21T01:24:10.471Z,0
2018-05-21T01:25:10.409Z,0
2018-05-21T01:26:10.439Z,0
2018-05-21T01:27:10.412Z,0
2018-05-21T01:28:10.418Z,0
2018-05-21T01:29:10.476Z,0
2018-05-21T01:30:10.480Z,0
2018-05-21T01:31:10.415Z,0
2018-05-21T01:32:10.449Z,0
2018-05-21T01:33:10.436Z,0
2018-05-21T01:34:10.477Z,0
2018-05-21T01:35:10.431Z,0
2018-05-21T01:36:10.498Z,0
2018-05-21T01:37:10.403Z,0
2018-05-21T01:38:10.479Z,0
2018-05-21T01:39:10.443Z,0
2018-05-21T01:40:10.413Z,0
2018-05-21T01:41:10.459Z,0
2018-05-21T01:42:10.414Z,0
2018-05-21T01:43:10.486Z,0
2018-05-21T01:44:10.420Z,0
2018-05-21T01:45:10.369Z,0
2018-05-21T01:46:10.426Z,0
2018-05-21T01:47:10.499Z,0
2018-05-21T01:48:10.422Z,0
2018-05-21T01:49:10.494Z,0
2018-05-21T01:50:10.509Z,0
2018-05-21T01:51:10.424Z,0
2018-05-21T01:52:10.395Z,0
2018-05-21T01:53:10.491Z,0
2018-05-21T01:54:10.512Z,0
2018-05-21T01:55:10.454Z,0
2018-05-21T01:56:10.491Z,0
2018-05-21T01:57:10.410Z,0
2018-05-21T01:58:10.391Z,0
2018-05-21T01:59:10.398Z,0
2018-05-21T02:00:10.492Z,0
2018-05-21T02:01:10.473Z,0
2018-05-21T02:02:10.417Z,0
2018-05-21T02:03:10.457Z,0
2018-05-21T02:04:10.498Z,0
2018-05-21T02:05:10.530Z,0
2018-05-21T02:06:10.423Z,0
2018-05-21T02:07:10.524Z,0
2018-05-21T02:08:10.414Z,0
2018-05-21T02:09:10.400Z,0
2018-05-21T02:10:10.478Z,0
2018-05-21T02:11:10.476Z,0
2018-05-21T02:12:10.481Z,0
2018-05-21T02:13:10.487Z,0
2018-05-21T02:14:10.512Z,0
2018-05-21T02:15:10.543Z,0
2018-05-21T02:16:10.427Z,0
2018-05-21T02:17:10.411Z,0
2018-05-21T02:18:10.508Z,0
2018-05-21T02:19:10.513Z,0
2018-05-21T02:20:10.488Z,0
2018-05-21T02:21:10.482Z,0
2018-05-21T02:22:10.513Z,0
2018-05-21T02:23:10.449Z,0
2018-05-21T02:24:10.507Z,0
2018-05-21T02:25:10.517Z,0
2018-05-21T02:26:10.444Z,0
2018-05-21T02:27:10.511Z,0
2018-05-21T02:28:10.519Z,0
2018-05-21T02:29:10.517Z,0
2018-05-21T02:30:10.516Z,0
2018-05-21T02:31:10.455Z,0
2018-05-21T02:32:10.484Z,0
2018-05-21T02:33:10.455Z,0
2018-05-21T02:34:10.519Z,0
2018-05-21T02:35:10.464Z,0
2018-05-21T02:36:10.517Z,0
2018-05-21T02:37:10.454Z,0
2018-05-21T02:38:10.454Z,0
2018-05-21T02:39:10.522Z,0
2018-05-21T02:40:10.514Z,0
2018-05-21T02:41:10.538Z,0
2018-05-21T02:42:10.503Z,0
2018-05-21T02:43:10.547Z,0
2018-05-21T02:44:10.502Z,0
2018-05-21T02:45:10.563Z,0
2018-05-21T02:46:10.422Z,0
2018-05-21T02:47:10.525Z,0
2018-05-21T02:48:10.450Z,0
2018-05-21T02:49:10.492Z,0
2018-05-21T02:50:10.484Z,0
2018-05-21T02:51:10.484Z,0
2018-05-21T02:52:10.524Z,0
2018-05-21T02:53:10.452Z,0
2018-05-21T02:54:10.530Z,0
2018-05-21T02:55:10.548Z,0
2018-05-21T02:56:10.506Z,0
2018-05-21T02:57:10.435Z,0
2018-05-21T02:58:10.439Z,0
2018-05-21T02:59:10.440Z,0
2018-05-21T03:00:10.503Z,0
2018-05-21T03:01:10.491Z,0
2018-05-21T03:02:10.488Z,0
2018-05-21T03:03:10.535Z,0
2018-05-21T03:04:10.537Z,5
2018-05-21T03:05:10.535Z,5
2018-05-21T03:06:10.497Z,5
2018-05-21T03:07:10.437Z,5
2018-05-21T03:08:10.451Z,5
2018-05-21T03:09:10.505Z,5
2018-05-21T03:10:10.566Z,5
2018-05-21T03:11:10.588Z,11
2018-05-21T03:12:10.446Z,11
2018-05-21T03:13:10.559Z,11
2018-05-21T03:14:10.521Z,11
2018-05-21T03:15:10.558Z,16
2018-05-21T03:16:10.549Z,16
2018-05-21T03:17:10.563Z,16
2018-05-21T03:18:10.569Z,22
2018-05-21T03:19:10.548Z,22
2018-05-21T03:20:10.470Z,28
2018-05-21T03:21:10.590Z,28
2018-05-21T03:22:10.522Z,28
2018-05-21T03:23:10.501Z,33
2018-05-21T03:24:10.489Z,33
2018-05-21T03:25:10.549Z,39
2018-05-21T03:26:10.486Z,39
2018-05-21T03:27:10.551Z,45
2018-05-21T03:28:10.511Z,50
2018-05-21T03:29:10.580Z,50
2018-05-21T03:30:10.530Z,56
2018-05-21T03:31:10.569Z,61
2018-05-21T03:32:10.454Z,61
2018-05-21T03:33:10.525Z,67
2018-05-21T03:34:10.476Z,67
2018-05-21T03:35:10.460Z,73
2018-05-21T03:36:10.534Z,78
2018-05-21T03:37:10.595Z,84
2018-05-21T03:38:10.498Z,84
2018-05-21T03:39:10.514Z,90
2018-05-21T03:40:10.580Z,95
2018-05-21T03:41:10.555Z,101
2018-05-21T03:42:10.558Z,101
2018-05-21T03:43:10.537Z,106
2018-05-21T03:44:10.561Z,112
2018-05-21T03:45:10.606Z,118
2018-05-21T03:46:10.579Z,123
2018-05-21T03:47:10.538Z,123
2018-05-21T03:48:10.582Z,129
2018-05-21T03:49:10.525Z,135
2018-05-21T03:50:10.489Z,140
2018-05-21T03:51:10.565Z,146
2018-05-21T03:52:10.534Z,151
2018-05-21T03:53:10.563Z,157
2018-05-21T03:54:10.470Z,157
2018-05-21T03:55:10.534Z,163
2018-05-21T03:56:10.470Z,168
2018-05-21T03:57:10.566Z,174
2018-05-21T03:58:10.542Z,180
2018-05-21T03:59:10.603Z,185
2018-05-21T04:00:10.593Z,191
2018-05-21T04:01:10.526Z,196
2018-05-21T04:02:10.517Z,202
2018-05-21T04:03:10.431Z,208
2018-05-21T04:04:10.438Z,213
2018-05-21T04:05:10.475Z,219
2018-05-21T04:06:10.474Z,225
2018-05-21T04:07:10.473Z,225
2018-05-21T04:08:10.471Z,230
2018-05-21T04:09:10.524Z,236
2018-05-21T04:10:10.463Z,241
2018-05-21T04:11:10.589Z,247
2018-05-21T04:12:10.562Z,253
2018-05-21T04:13:10.598Z,258
2018-05-21T04:14:10.605Z,264
2018-05-21T04:15:10.583Z,264
2018-05-21T04:16:10.610Z,270
2018-05-21T04:17:10.541Z,275
2018-05-21T04:18:10.582Z,281
2018-05-21T04:19:10.606Z,286
2018-05-21T04:20:10.616Z,292
2018-05-21T04:21:10.485Z,298
2018-05-21T04:22:10.472Z,303
2018-05-21T04:23:10.577Z,309
2018-05-21T04:24:10.580Z,315
2018-05-21T04:25:10.576Z,320
2018-05-21T04:26:10.494Z,326
2018-05-21T04:27:10.587Z,331
2018-05-21T04:28:10.609Z,337
2018-05-21T04:29:10.489Z,343
2018-05-21T04:30:10.591Z,348
2018-05-21T04:31:10.587Z,354
2018-05-21T04:32:10.621Z,360
2018-05-21T04:33:10.494Z,365
2018-05-21T04:34:10.572Z,371
2018-05-21T04:35:10.620Z,376
2018-05-21T04:36:10.619Z,382
2018-05-21T04:37:10.495Z,388
2018-05-21T04:38:10.619Z,393
2018-05-21T04:39:10.635Z,399
2018-05-21T04:40:10.494Z,405
2018-05-21T04:41:10.554Z,410
2018-05-21T04:42:10.594Z,416
2018-05-21T04:43:10.559Z,421
2018-05-21T04:44:10.580Z,427
2018-05-21T04:45:10.602Z,433
2018-05-21T04:46:10.555Z,438
2018-05-21T04:47:10.508Z,444
2018-05-21T04:48:10.520Z,450
2018-05-21T04:49:10.575Z,450
2018-05-21T04:50:10.540Z,455
2018-05-21T04:51:10.603Z,461
2018-05-21T04:52:10.634Z,466
2018-05-21T04:53:10.696Z,472
2018-05-21T04:54:10.639Z,478
2018-05-21T04:55:10.570Z,489
2018-05-21T04:56:10.627Z,489
2018-05-21T04:57:10.578Z,495
2018-05-21T04:58:10.575Z,495
2018-05-21T04:59:10.631Z,500
2018-05-21T05:00:10.588Z,506
2018-05-21T05:01:10.586Z,511
2018-05-21T05:02:10.635Z,517
2018-05-21T05:03:10.570Z,523
2018-05-21T05:04:10.518Z,528
2018-05-21T05:05:10.647Z,534
2018-05-21T05:06:10.581Z,540
2018-05-21T05:07:10.668Z,545
2018-05-21T05:08:10.574Z,551
2018-05-21T05:09:10.588Z,556
2018-05-21T05:10:10.540Z,562
2018-05-21T05:11:10.544Z,562
2018-05-21T05:12:10.557Z,568
2018-05-21T05:13:10.614Z,579
2018-05-21T05:14:10.502Z,585
2018-05-21T05:15:10.489Z,590
2018-05-21T05:16:10.562Z,596
2018-05-21T05:17:10.559Z,596
2018-05-21T05:18:10.604Z,601
2018-05-21T05:19:10.606Z,607
2018-05-21T05:20:10.529Z,613
2018-05-21T05:21:10.670Z,618
2018-05-21T05:22:10.522Z,618
2018-05-21T05:23:10.567Z,624
2018-05-21T05:24:10.480Z,630
2018-05-21T05:25:10.633Z,641
2018-05-21T05:26:10.553Z,641
2018-05-21T05:27:10.526Z,646
2018-05-21T05:28:10.480Z,646
2018-05-21T05:29:10.560Z,646
2018-05-21T05:30:10.578Z,652
2018-05-21T05:31:10.510Z,658
2018-05-21T05:32:10.563Z,663
2018-05-21T05:33:10.631Z,669
2018-05-21T05:34:10.574Z,675
2018-05-21T05:35:10.566Z,675
2018-05-21T05:36:10.564Z,680
2018-05-21T05:37:10.564Z,686
2018-05-21T05:38:10.567Z,691
2018-05-21T05:39:10.634Z,697
2018-05-21T05:40:10.569Z,714
2018-05-21T05:41:10.635Z,945
2018-05-21T05:42:10.741Z,1310
2018-05-21T05:43:10.576Z,1400
2018-05-21T05:44:10.639Z,1468
2018-05-21T05:45:10.639Z,1546
2018-05-21T05:46:10.577Z,1614
2018-05-21T05:47:10.574Z,1648
2018-05-21T05:48:10.640Z,1625
2018-05-21T05:49:10.572Z,1636
2018-05-21T05:50:10.664Z,1614
2018-05-21T05:51:10.578Z,1591
2018-05-21T05:52:10.515Z,1558
2018-05-21T05:53:10.619Z,1535
2018-05-21T05:54:10.514Z,1518
2018-05-21T05:55:10.627Z,1507
2018-05-21T05:56:10.500Z,1490
2018-05-21T05:57:10.627Z,1473
2018-05-21T05:58:10.512Z,1479
2018-05-21T05:59:10.521Z,1496
2018-05-21T06:00:10.625Z,1518
2018-05-21T06:01:10.605Z,1558
2018-05-21T06:02:10.686Z,1591
2018-05-21T06:03:10.683Z,1631
2018-05-21T06:04:10.603Z,1653
2018-05-21T06:05:10.557Z,1721
2018-05-21T06:06:10.611Z,1788
2018-05-21T06:07:10.629Z,1878
2018-05-21T06:08:10.552Z,1946
2018-05-21T06:09:10.622Z,2025
2018-05-21T06:10:10.675Z,2041
2018-05-21T06:11:10.732Z,2008
2018-05-21T06:12:10.563Z,1996
2018-05-21T06:13:10.600Z,1951
2018-05-21T06:14:10.645Z,1895
2018-05-21T06:15:10.564Z,1839
2018-05-21T06:16:10.592Z,1811
2018-05-21T06:17:10.543Z,1783
2018-05-21T06:18:10.645Z,1816
2018-05-21T06:19:10.653Z,1878
2018-05-21T06:20:10.596Z,1946
2018-05-21T06:21:10.644Z,2036
2018-05-21T06:22:10.591Z,2143
2018-05-21T06:23:10.600Z,2221
2018-05-21T06:24:10.662Z,2289
2018-05-21T06:25:10.600Z,2368
2018-05-21T06:26:10.665Z,2390
2018-05-21T06:27:10.593Z,2390
2018-05-21T06:28:10.663Z,2407
2018-05-21T06:29:10.594Z,2441
2018-05-21T06:30:10.672Z,2452
2018-05-21T06:31:10.604Z,2463
2018-05-21T06:32:10.666Z,2475
2018-05-21T06:33:10.669Z,2452
2018-05-21T06:34:10.787Z,2401
2018-05-21T06:35:10.604Z,2340
2018-05-21T06:36:10.670Z,2261
2018-05-21T06:37:10.609Z,2165
2018-05-21T06:38:10.673Z,2103
2018-05-21T06:39:10.606Z,2030
2018-05-21T06:40:10.671Z,1974
2018-05-21T06:41:10.681Z,1923
2018-05-21T06:42:10.663Z,1912
2018-05-21T06:43:10.673Z,1951
2018-05-21T06:44:10.602Z,2047
2018-05-21T06:45:10.610Z,2171
2018-05-21T06:46:10.675Z,2323
2018-05-21T06:47:10.565Z,2430
2018-05-21T06:48:10.614Z,2531
2018-05-21T06:49:10.582Z,2615
2018-05-21T06:50:10.566Z,2688
2018-05-21T06:51:10.670Z,2750
2018-05-21T06:52:10.686Z,2778
2018-05-21T06:53:10.683Z,2767
2018-05-21T06:54:10.614Z,2812
2018-05-21T06:55:10.616Z,2840
2018-05-21T06:56:10.685Z,2846
2018-05-21T06:57:10.622Z,2835
2018-05-21T06:58:10.703Z,2846
2018-05-21T06:59:10.644Z,2880
2018-05-21T07:00:10.619Z,2936
2018-05-21T07:01:10.613Z,2992
2018-05-21T07:02:10.708Z,3048
2018-05-21T07:03:10.658Z,3110
2018-05-21T07:04:10.766Z,3161
2018-05-21T07:05:10.728Z,3200
2018-05-21T07:06:10.668Z,3211
2018-05-21T07:07:10.650Z,3223
2018-05-21T07:08:10.692Z,3228
2018-05-21T07:09:10.710Z,3251
2018-05-21T07:10:10.669Z,3251
2018-05-21T07:11:10.768Z,3251
2018-05-21T07:12:10.629Z,3262
2018-05-21T07:13:10.695Z,3290
2018-05-21T07:14:10.693Z,3313
2018-05-21T07:15:10.696Z,3324
2018-05-21T07:16:10.696Z,3341
2018-05-21T07:17:10.695Z,3375
2018-05-21T07:18:10.719Z,3386
2018-05-21T07:19:10.698Z,3414
2018-05-21T07:20:10.632Z,3459
2018-05-21T07:21:10.703Z,3476
2018-05-21T07:22:10.703Z,3459
2018-05-21T07:23:10.699Z,3498
2018-05-21T07:24:10.665Z,3543
2018-05-21T07:25:10.646Z,3633
2018-05-21T07:26:10.639Z,3645
2018-05-21T07:27:10.704Z,3628
2018-05-21T07:28:10.704Z,3633
2018-05-21T07:29:10.708Z,3684
2018-05-21T07:30:10.636Z,3751
2018-05-21T07:31:10.641Z,3768
2018-05-21T07:32:10.711Z,3751
2018-05-21T07:33:10.684Z,3735
2018-05-21T07:34:10.730Z,3808
2018-05-21T07:35:10.723Z,3819
2018-05-21T07:36:10.734Z,3785
2018-05-21T07:37:10.608Z,3751
2018-05-21T07:38:10.683Z,3746
2018-05-21T07:39:10.617Z,3763
2018-05-21T07:40:10.685Z,3757
2018-05-21T07:41:10.733Z,3746
2018-05-21T07:42:10.680Z,3718
2018-05-21T07:43:10.716Z,3768
2018-05-21T07:44:10.620Z,3830
2018-05-21T07:45:10.685Z,3881
2018-05-21T07:46:10.754Z,3886
2018-05-21T07:47:10.750Z,3898
2018-05-21T07:48:10.636Z,3931
2018-05-21T07:49:10.676Z,3960
2018-05-21T07:50:10.622Z,3999
2018-05-21T07:51:10.698Z,4027
2018-05-21T07:52:10.721Z,4044
2018-05-21T07:53:10.585Z,4083
2018-05-21T07:54:10.629Z,4128
2018-05-21T07:55:10.706Z,4207
2018-05-21T07:56:10.710Z,4258
2018-05-21T07:57:10.711Z,4291
2018-05-21T07:58:10.695Z,4269
2018-05-21T07:59:10.722Z,4286
2018-05-21T08:00:10.701Z,4280
2018-05-21T08:01:10.591Z,4258
2018-05-21T08:02:10.652Z,4230
2018-05-21T08:03:10.673Z,4201
2018-05-21T08:04:10.662Z,4207
2018-05-21T08:05:10.686Z,4235
2018-05-21T08:06:10.733Z,4252
2018-05-21T08:07:10.741Z,4286
2018-05-21T08:08:10.732Z,4308
2018-05-21T08:09:10.737Z,4331
2018-05-21T08:10:10.668Z,4348
2018-05-21T08:11:10.736Z,4359
2018-05-21T08:12:10.674Z,4404
2018-05-21T08:13:10.731Z,4466
2018-05-21T08:14:10.734Z,4455
2018-05-21T08:15:10.736Z,4432
2018-05-21T08:16:10.672Z,4370
2018-05-21T08:17:10.664Z,4370
2018-05-21T08:18:10.669Z,4398
2018-05-21T08:19:10.702Z,4438
2018-05-21T08:20:10.685Z,4460
2018-05-21T08:21:10.738Z,4511
2018-05-21T08:22:10.751Z,4561
2018-05-21T08:23:10.716Z,4595
2018-05-21T08:24:10.843Z,4601
2018-05-21T08:25:10.780Z,4573
2018-05-21T08:26:10.706Z,4533
2018-05-21T08:27:10.752Z,4477
2018-05-21T08:28:10.716Z,4432
2018-05-21T08:29:10.726Z,4449
2018-05-21T08:30:10.744Z,4500
2018-05-21T08:31:10.728Z,4556
2018-05-21T08:32:10.651Z,4595
2018-05-21T08:33:10.782Z,4612
2018-05-21T08:34:10.874Z,4635
2018-05-21T08:35:10.711Z,4674
2018-05-21T08:36:10.775Z,4736
2018-05-21T08:37:10.780Z,4747
2018-05-21T08:38:10.727Z,4685
2018-05-21T08:39:10.724Z,4708
2018-05-21T08:40:10.659Z,4696
2018-05-21T08:41:10.773Z,4730
2018-05-21T08:42:10.722Z,4792
2018-05-21T08:43:10.708Z,4798
2018-05-21T08:44:10.717Z,4764
2018-05-21T08:45:10.688Z,4758
2018-05-21T08:46:10.752Z,4781
2018-05-21T08:47:10.791Z,4815
2018-05-21T08:48:10.710Z,4798
2018-05-21T08:49:10.712Z,4770
2018-05-21T08:50:10.776Z,4708
2018-05-21T08:51:10.714Z,4719
2018-05-21T08:52:10.739Z,4775
2018-05-21T08:53:10.757Z,4792
2018-05-21T08:54:10.693Z,4809
2018-05-21T08:55:10.812Z,4809
2018-05-21T08:56:10.824Z,4843
2018-05-21T08:57:10.762Z,4899
2018-05-21T08:58:10.760Z,4927
2018-05-21T08:59:10.730Z,4899
2018-05-21T09:00:10.761Z,4899
2018-05-21T09:01:10.757Z,4753
2018-05-21T09:02:10.761Z,4680
2018-05-21T09:03:10.773Z,4601
2018-05-21T09:04:10.768Z,4494
2018-05-21T09:05:10.743Z,4460
2018-05-21T09:06:10.671Z,4432
2018-05-21T09:07:10.737Z,4415
2018-05-21T09:08:10.706Z,4500
2018-05-21T09:09:10.746Z,4629
2018-05-21T09:10:10.883Z,4764
2018-05-21T09:11:10.789Z,4848
2018-05-21T09:12:10.735Z,4961
2018-05-21T09:13:10.754Z,5056
2018-05-21T09:14:10.730Z,5085
2018-05-21T09:15:10.815Z,5085
2018-05-21T09:16:10.713Z,5056
2018-05-21T09:17:10.811Z,5034
2018-05-21T09:18:10.697Z,5141
2018-05-21T09:19:10.743Z,4978
2018-05-21T09:20:10.739Z,4989
2018-05-21T09:21:10.800Z,4927
2018-05-21T09:22:10.808Z,4916
2018-05-21T09:23:10.743Z,4966
2018-05-21T09:24:10.762Z,5045
2018-05-21T09:25:10.734Z,5068
2018-05-21T09:26:10.843Z,5118
2018-05-21T09:27:10.689Z,5191
2018-05-21T09:28:10.778Z,5315
2018-05-21T09:29:10.691Z,5276
2018-05-21T09:30:10.759Z,5298
2018-05-21T09:31:10.693Z,5287
2018-05-21T09:32:10.755Z,5265
2018-05-21T09:33:10.785Z,5349
2018-05-21T09:34:10.782Z,5304
2018-05-21T09:35:10.729Z,5338
2018-05-21T09:36:10.747Z,5371
2018-05-21T09:37:10.815Z,5366
2018-05-21T09:38:10.789Z,5394
2018-05-21T09:39:10.789Z,5355
2018-05-21T09:40:10.761Z,5405
2018-05-21T09:41:10.793Z,5394
2018-05-21T09:42:10.728Z,5433
2018-05-21T09:43:10.781Z,5518
2018-05-21T09:44:10.786Z,5535
2018-05-21T09:45:10.787Z,5653
2018-05-21T09:46:10.788Z,5608
2018-05-21T09:47:10.783Z,5529
2018-05-21T09:48:10.786Z,5580
2018-05-21T09:49:10.700Z,5619
2018-05-21T09:50:10.668Z,5698
2018-05-21T09:51:10.788Z,5782
2018-05-21T09:52:10.698Z,5782
2018-05-21T09:53:10.799Z,5782
2018-05-21T09:54:10.798Z,5793
2018-05-21T09:55:10.806Z,5686
2018-05-21T09:56:10.730Z,5568
2018-05-21T09:57:10.806Z,5557
2018-05-21T09:58:10.866Z,5450
2018-05-21T09:59:10.801Z,5456
2018-05-21T10:00:10.801Z,5433
2018-05-21T10:01:10.742Z,5467
2018-05-21T10:02:10.808Z,5422
2018-05-21T10:03:10.708Z,5394
2018-05-21T10:04:10.764Z,5411
2018-05-21T10:05:10.835Z,5422
2018-05-21T10:06:10.809Z,5315
2018-05-21T10:07:10.788Z,5180
2018-05-21T10:08:10.836Z,5321
2018-05-21T10:09:10.767Z,5428
2018-05-21T10:10:10.842Z,5484
2018-05-21T10:11:10.787Z,5625
2018-05-21T10:12:10.759Z,5658
2018-05-21T10:13:10.792Z,5580
2018-05-21T10:14:10.780Z,5585
2018-05-21T10:15:10.835Z,5619
2018-05-21T10:16:10.831Z,5568
2018-05-21T10:17:10.852Z,5602
2018-05-21T10:18:10.786Z,5518
2018-05-21T10:19:10.841Z,5512
2018-05-21T10:20:10.834Z,5501
2018-05-21T10:21:10.725Z,5467
2018-05-21T10:22:10.793Z,5484
2018-05-21T10:23:10.818Z,5467
2018-05-21T10:24:10.752Z,5473
2018-05-21T10:25:10.821Z,5495
2018-05-21T10:26:10.812Z,5540
2018-05-21T10:27:10.757Z,5596
2018-05-21T10:28:10.836Z,5658
2018-05-21T10:29:10.831Z,5596
2018-05-21T10:30:10.754Z,5568
2018-05-21T10:31:10.828Z,5478
2018-05-21T10:32:10.823Z,5484
2018-05-21T10:33:10.831Z,5371
2018-05-21T10:34:10.759Z,5281
2018-05-21T10:35:10.758Z,5265
2018-05-21T10:36:10.831Z,5281
2018-05-21T10:37:10.787Z,5360
2018-05-21T10:38:10.831Z,5400
2018-05-21T10:39:10.828Z,5360
2018-05-21T10:40:10.763Z,5343
2018-05-21T10:41:10.831Z,5304
2018-05-21T10:42:10.832Z,5304
2018-05-21T10:43:10.867Z,5304
2018-05-21T10:44:10.740Z,5394
2018-05-21T10:45:10.872Z,5411
2018-05-21T10:46:10.754Z,5394
2018-05-21T10:47:10.861Z,5281
2018-05-21T10:48:10.807Z,5259
2018-05-21T10:49:10.865Z,5276
2018-05-21T10:50:10.875Z,5394
2018-05-21T10:51:10.807Z,5490
2018-05-21T10:52:10.809Z,5686
2018-05-21T10:53:10.837Z,5776
2018-05-21T10:54:10.787Z,5793
2018-05-21T10:55:10.769Z,5664
2018-05-21T10:56:10.859Z,5574
2018-05-21T10:57:10.840Z,5540
2018-05-21T10:58:10.780Z,5580
2018-05-21T10:59:10.840Z,5591
2018-05-21T11:00:10.840Z,5557
2018-05-21T11:01:10.777Z,5495
2018-05-21T11:02:10.849Z,5506
2018-05-21T11:03:10.768Z,5529
2018-05-21T11:04:10.839Z,5596
2018-05-21T11:05:10.862Z,5675
2018-05-21T11:06:10.867Z,5816
2018-05-21T11:07:10.883Z,5855
2018-05-21T11:08:10.806Z,5833
2018-05-21T11:09:10.886Z,5703
2018-05-21T11:10:10.850Z,5748
2018-05-21T11:11:10.785Z,5765
2018-05-21T11:12:10.868Z,5765
2018-05-21T11:13:10.852Z,5748
2018-05-21T11:14:10.810Z,5675
2018-05-21T11:15:10.874Z,5698
2018-05-21T11:16:10.771Z,5703
2018-05-21T11:17:10.850Z,5760
2018-05-21T11:18:10.833Z,5748
2018-05-21T11:19:10.792Z,5805
2018-05-21T11:20:10.760Z,5765
2018-05-21T11:21:10.778Z,5709
2018-05-21T11:22:10.839Z,5613
2018-05-21T11:23:10.821Z,5574
2018-05-21T11:24:10.819Z,5490
2018-05-21T11:25:10.886Z,5461
2018-05-21T11:26:10.780Z,5377
2018-05-21T11:27:10.800Z,5304
2018-05-21T11:28:10.834Z,5276
2018-05-21T11:29:10.894Z,5208
2018-05-21T11:30:10.841Z,5146
2018-05-21T11:31:10.830Z,5079
2018-05-21T11:32:10.833Z,5034
2018-05-21T11:33:10.864Z,5079
2018-05-21T11:34:10.803Z,5124
2018-05-21T11:35:10.799Z,5186
2018-05-21T11:36:10.797Z,5197
2018-05-21T11:37:10.862Z,5248
2018-05-21T11:38:10.865Z,5315
2018-05-21T11:39:10.881Z,5326
2018-05-21T11:40:10.800Z,5315
2018-05-21T11:41:10.805Z,5338
2018-05-21T11:42:10.801Z,5388
2018-05-21T11:43:10.775Z,5343
2018-05-21T11:44:10.899Z,5343
2018-05-21T11:45:10.680Z,5276
2018-05-21T11:46:10.894Z,5293
2018-05-21T11:47:10.913Z,5293
2018-05-21T11:48:10.847Z,5321
2018-05-21T11:49:10.847Z,5349
2018-05-21T11:50:10.907Z,5428
2018-05-21T11:51:10.853Z,5450
2018-05-21T11:52:10.834Z,5478
2018-05-21T11:53:10.857Z,5422
2018-05-21T11:54:10.828Z,5428
2018-05-21T11:55:10.774Z,5467
2018-05-21T11:56:10.867Z,5523
2018-05-21T11:57:10.829Z,5574
2018-05-21T11:58:10.857Z,5608
2018-05-21T11:59:10.812Z,5591
2018-05-21T12:00:10.830Z,5540
2018-05-21T12:01:10.854Z,5450
2018-05-21T12:02:10.808Z,5490
2018-05-21T12:03:10.911Z,5428
2018-05-21T12:04:10.910Z,5416
2018-05-21T12:05:10.880Z,5298
2018-05-21T12:06:10.845Z,5220
2018-05-21T12:07:10.850Z,5158
2018-05-21T12:08:10.888Z,5141
2018-05-21T12:09:10.911Z,5135
2018-05-21T12:10:10.863Z,5118
2018-05-21T12:11:10.790Z,5158
2018-05-21T12:12:10.856Z,5231
2018-05-21T12:13:10.794Z,5310
2018-05-21T12:14:10.843Z,5332
2018-05-21T12:15:10.887Z,5298
2018-05-21T12:16:10.874Z,5281
2018-05-21T12:17:10.880Z,5265
2018-05-21T12:18:10.819Z,5242
2018-05-21T12:19:10.772Z,5236
2018-05-21T12:20:10.778Z,5220
2018-05-21T12:21:10.827Z,5175
2018-05-21T12:22:10.888Z,5146
2018-05-21T12:23:10.795Z,5101
2018-05-21T12:24:10.793Z,5107
2018-05-21T12:25:10.872Z,5118
2018-05-21T12:26:10.757Z,5118
2018-05-21T12:27:10.852Z,5141
2018-05-21T12:28:10.856Z,5146
2018-05-21T12:29:10.789Z,5146
2018-05-21T12:30:10.855Z,5141
2018-05-21T12:31:10.760Z,5163
2018-05-21T12:32:10.846Z,5152
2018-05-21T12:33:10.893Z,5141
2018-05-21T12:34:10.804Z,5073
2018-05-21T12:35:10.893Z,5006
2018-05-21T12:36:10.776Z,4921
2018-05-21T12:37:10.901Z,4871
2018-05-21T12:38:10.835Z,4888
2018-05-21T12:39:10.845Z,4916
2018-05-21T12:40:10.835Z,4989
2018-05-21T12:41:10.900Z,5000
2018-05-21T12:42:10.906Z,4995
2018-05-21T12:43:10.895Z,5011
2018-05-21T12:44:10.896Z,5040
2018-05-21T12:45:10.840Z,5096
2018-05-21T12:46:10.872Z,5079
2018-05-21T12:47:10.861Z,5062
2018-05-21T12:48:10.894Z,5040
2018-05-21T12:49:10.898Z,5017
2018-05-21T12:50:10.909Z,4921
2018-05-21T12:51:10.911Z,4854
2018-05-21T12:52:10.863Z,4792
2018-05-21T12:53:10.917Z,4803
2018-05-21T12:54:10.945Z,4826
2018-05-21T12:55:10.817Z,4843
2018-05-21T12:56:10.913Z,4820
2018-05-21T12:57:10.890Z,4820
2018-05-21T12:58:10.939Z,4899
2018-05-21T12:59:10.895Z,4950
2018-05-21T13:00:10.937Z,4995
2018-05-21T13:01:10.947Z,4966
2018-05-21T13:02:10.959Z,4916
2018-05-21T13:03:10.872Z,4820
2018-05-21T13:04:10.941Z,4770
2018-05-21T13:05:11.048Z,4719
2018-05-21T13:06:10.941Z,4702
2018-05-21T13:07:10.894Z,4674
2018-05-21T13:08:10.926Z,4668
2018-05-21T13:09:10.892Z,4629
2018-05-21T13:10:10.896Z,4635
2018-05-21T13:11:10.961Z,4635
2018-05-21T13:12:10.943Z,4618
2018-05-21T13:13:10.880Z,4629
2018-05-21T13:14:10.901Z,4567
2018-05-21T13:15:10.971Z,4516
2018-05-21T13:16:10.958Z,4500
2018-05-21T13:17:10.900Z,4471
2018-05-21T13:18:10.901Z,4466
2018-05-21T13:19:10.953Z,4494
2018-05-21T13:20:10.947Z,4511
2018-05-21T13:21:10.949Z,4511
2018-05-21T13:22:10.910Z,4511
2018-05-21T13:23:10.880Z,4483
2018-05-21T13:24:11.013Z,4449
2018-05-21T13:25:10.932Z,4449
2018-05-21T13:26:10.927Z,4443
2018-05-21T13:27:10.961Z,4438
2018-05-21T13:28:10.935Z,4410
2018-05-21T13:29:10.866Z,4348
2018-05-21T13:30:10.924Z,4342
2018-05-21T13:31:10.934Z,4331
2018-05-21T13:32:10.844Z,4308
2018-05-21T13:33:10.941Z,4275
2018-05-21T13:34:10.967Z,4275
2018-05-21T13:35:10.880Z,4286
2018-05-21T13:36:10.973Z,4286
2018-05-21T13:37:10.969Z,4246
2018-05-21T13:38:10.912Z,4173
2018-05-21T13:39:10.865Z,4089
2018-05-21T13:40:10.965Z,3988
2018-05-21T13:41:10.969Z,3909
2018-05-21T13:42:10.921Z,3931
2018-05-21T13:43:10.877Z,3999